sensor_id;sensor_type;location;lat;lon;timestamp;temperature;humidity
12843;DHT22;35724;49.324;-123.118;2023-03-23T00:04:09;26.80;36.20
12843;DHT22;35724;49.324;-123.118;2023-03-23T00:14:19;26.90;36.30
12843;DHT22;35724;49.324;-123.118;2023-03-23T00:24:30;27.00;36.20
12843;DHT22;35724;49.324;-123.118;2023-03-23T00:34:36;27.00;36.90
12843;DHT22;35724;49.324;-123.118;2023-03-23T00:44:43;27.20;37.30
12843;DHT22;35724;49.324;-123.118;2023-03-23T00:54:50;27.20;37.00
12843;DHT22;35724;49.324;-123.118;2023-03-23T01:04:58;27.20;36.30
12843;DHT22;35724;49.324;-123.118;2023-03-23T01:15:12;27.10;35.90
12843;DHT22;35724;49.324;-123.118;2023-03-23T01:25:21;27.10;35.80
12843;DHT22;35724;49.324;-123.118;2023-03-23T01:35:29;27.10;36.90
12843;DHT22;35724;49.324;-123.118;2023-03-23T02:08:49;27.20;37.60
12843;DHT22;35724;49.324;-123.118;2023-03-23T02:19:12;27.20;38.20
12843;DHT22;35724;49.324;-123.118;2023-03-23T02:40:44;27.20;38.90
12843;DHT22;35724;49.324;-123.118;2023-03-23T02:51:35;27.20;39.70
12843;DHT22;35724;49.324;-123.118;2023-03-23T03:02:00;27.30;41.20
12843;DHT22;35724;49.324;-123.118;2023-03-23T03:12:14;27.30;41.00
12843;DHT22;35724;49.324;-123.118;2023-03-23T03:33:38;27.40;41.40
12843;DHT22;35724;49.324;-123.118;2023-03-23T03:44:27;27.50;41.20
12843;DHT22;35724;49.324;-123.118;2023-03-23T03:54:44;27.50;41.10
12843;DHT22;35724;49.324;-123.118;2023-03-23T04:05:07;27.50;41.00
12843;DHT22;35724;49.324;-123.118;2023-03-23T04:15:46;27.50;41.10
12843;DHT22;35724;49.324;-123.118;2023-03-23T04:50:51;27.70;40.40
12843;DHT22;35724;49.324;-123.118;2023-03-23T05:11:42;27.70;39.80
12843;DHT22;35724;49.324;-123.118;2023-03-23T05:21:53;27.70;39.60
12843;DHT22;35724;49.324;-123.118;2023-03-23T05:32:03;27.80;39.40
12843;DHT22;35724;49.324;-123.118;2023-03-23T05:54:34;27.80;38.70
12843;DHT22;35724;49.324;-123.118;2023-03-23T06:04:43;27.90;38.20
12843;DHT22;35724;49.324;-123.118;2023-03-23T06:15:00;27.80;38.00
12843;DHT22;35724;49.324;-123.118;2023-03-23T06:25:27;27.70;38.10
12843;DHT22;35724;49.324;-123.118;2023-03-23T06:35:39;27.70;38.00
12843;DHT22;35724;49.324;-123.118;2023-03-23T06:45:59;27.70;37.90
12843;DHT22;35724;49.324;-123.118;2023-03-23T06:56:08;27.60;37.70
12843;DHT22;35724;49.324;-123.118;2023-03-23T07:06:45;27.60;37.40
12843;DHT22;35724;49.324;-123.118;2023-03-23T07:16:53;27.70;37.60
12843;DHT22;35724;49.324;-123.118;2023-03-23T07:27:00;27.70;37.60
12843;DHT22;35724;49.324;-123.118;2023-03-23T07:37:09;27.80;37.60
12843;DHT22;35724;49.324;-123.118;2023-03-23T07:47:17;27.80;37.70
12843;DHT22;35724;49.324;-123.118;2023-03-23T07:57:26;27.80;37.70
12843;DHT22;35724;49.324;-123.118;2023-03-23T08:07:33;27.80;37.70
12843;DHT22;35724;49.324;-123.118;2023-03-23T08:18:01;27.90;37.80
12843;DHT22;35724;49.324;-123.118;2023-03-23T08:28:24;27.90;37.80
12843;DHT22;35724;49.324;-123.118;2023-03-23T08:38:53;27.90;37.70
12843;DHT22;35724;49.324;-123.118;2023-03-23T08:49:28;27.90;37.70
12843;DHT22;35724;49.324;-123.118;2023-03-23T08:59:53;28.00;37.70
12843;DHT22;35724;49.324;-123.118;2023-03-23T09:10:11;28.00;37.60
12843;DHT22;35724;49.324;-123.118;2023-03-23T09:20:21;28.10;37.70
12843;DHT22;35724;49.324;-123.118;2023-03-23T09:30:28;28.10;37.70
12843;DHT22;35724;49.324;-123.118;2023-03-23T09:40:43;28.10;37.60
12843;DHT22;35724;49.324;-123.118;2023-03-23T09:50:56;28.10;37.60
12843;DHT22;35724;49.324;-123.118;2023-03-23T10:01:08;28.20;37.60
12843;DHT22;35724;49.324;-123.118;2023-03-23T10:11:21;28.20;37.60
12843;DHT22;35724;49.324;-123.118;2023-03-23T10:21:30;28.30;37.60
12843;DHT22;35724;49.324;-123.118;2023-03-23T10:31:38;28.30;37.50
12843;DHT22;35724;49.324;-123.118;2023-03-23T10:41:45;28.30;37.50
12843;DHT22;35724;49.324;-123.118;2023-03-23T10:51:59;28.30;37.50
12843;DHT22;35724;49.324;-123.118;2023-03-23T11:02:15;28.30;37.50
12843;DHT22;35724;49.324;-123.118;2023-03-23T11:12:24;28.30;37.40
12843;DHT22;35724;49.324;-123.118;2023-03-23T11:22:33;28.40;37.40
12843;DHT22;35724;49.324;-123.118;2023-03-23T11:32:44;28.40;37.30
12843;DHT22;35724;49.324;-123.118;2023-03-23T11:42:58;28.40;37.30
12843;DHT22;35724;49.324;-123.118;2023-03-23T11:53:10;28.40;37.20
12843;DHT22;35724;49.324;-123.118;2023-03-23T12:03:39;28.40;37.20
12843;DHT22;35724;49.324;-123.118;2023-03-23T12:14:03;28.50;37.20
12843;DHT22;35724;49.324;-123.118;2023-03-23T12:24:18;28.50;37.10
12843;DHT22;35724;49.324;-123.118;2023-03-23T12:34:35;28.50;37.10
12843;DHT22;35724;49.324;-123.118;2023-03-23T12:44:47;28.50;37.00
12843;DHT22;35724;49.324;-123.118;2023-03-23T12:54:57;28.50;37.00
12843;DHT22;35724;49.324;-123.118;2023-03-23T13:05:12;28.60;37.00
12843;DHT22;35724;49.324;-123.118;2023-03-23T13:15:29;28.60;36.90
12843;DHT22;35724;49.324;-123.118;2023-03-23T13:25:47;28.60;36.90
12843;DHT22;35724;49.324;-123.118;2023-03-23T13:35:53;28.60;36.90
12843;DHT22;35724;49.324;-123.118;2023-03-23T13:46:11;28.60;36.90
12843;DHT22;35724;49.324;-123.118;2023-03-23T13:56:19;28.60;36.90
12843;DHT22;35724;49.324;-123.118;2023-03-23T14:06:26;28.60;36.90
12843;DHT22;35724;49.324;-123.118;2023-03-23T14:16:41;28.60;36.90
12843;DHT22;35724;49.324;-123.118;2023-03-23T14:26:49;28.60;36.90
12843;DHT22;35724;49.324;-123.118;2023-03-23T14:36:55;28.60;36.90
12843;DHT22;35724;49.324;-123.118;2023-03-23T14:47:04;28.70;36.90
12843;DHT22;35724;49.324;-123.118;2023-03-23T14:57:13;28.70;36.90
12843;DHT22;35724;49.324;-123.118;2023-03-23T15:18:29;28.70;35.90
12843;DHT22;35724;49.324;-123.118;2023-03-23T15:28:47;28.70;35.70
12843;DHT22;35724;49.324;-123.118;2023-03-23T15:40:24;28.60;35.40
12843;DHT22;35724;49.324;-123.118;2023-03-23T15:50:09;28.40;35.20
12843;DHT22;35724;49.324;-123.118;2023-03-23T16:11:30;28.20;35.10
12843;DHT22;35724;49.324;-123.118;2023-03-23T16:21:50;28.10;35.60
12843;DHT22;35724;49.324;-123.118;2023-03-23T16:32:02;28.20;35.30
12843;DHT22;35724;49.324;-123.118;2023-03-23T16:42:10;28.20;35.20
12843;DHT22;35724;49.324;-123.118;2023-03-23T16:52:19;28.20;34.90
12843;DHT22;35724;49.324;-123.118;2023-03-23T17:02:59;28.30;34.90
12843;DHT22;35724;49.324;-123.118;2023-03-23T17:13:32;28.40;34.50
12843;DHT22;35724;49.324;-123.118;2023-03-23T17:35:09;28.30;34.10
12843;DHT22;35724;49.324;-123.118;2023-03-23T17:45:21;28.30;33.80
12843;DHT22;35724;49.324;-123.118;2023-03-23T17:55:50;28.20;33.60
12843;DHT22;35724;49.324;-123.118;2023-03-23T18:06:30;28.10;33.90
12843;DHT22;35724;49.324;-123.118;2023-03-23T18:16:41;28.10;33.50
12843;DHT22;35724;49.324;-123.118;2023-03-23T18:26:48;28.20;33.50
12843;DHT22;35724;49.324;-123.118;2023-03-23T18:37:00;28.00;33.10
12843;DHT22;35724;49.324;-123.118;2023-03-23T18:47:07;27.80;32.40
12843;DHT22;35724;49.324;-123.118;2023-03-23T18:57:16;27.70;32.00
12843;DHT22;35724;49.324;-123.118;2023-03-23T19:18:19;27.40;31.50
12843;DHT22;35724;49.324;-123.118;2023-03-23T19:28:27;27.10;31.80
12843;DHT22;35724;49.324;-123.118;2023-03-23T19:38:55;26.80;32.90
12843;DHT22;35724;49.324;-123.118;2023-03-23T19:49:06;26.70;32.90
12843;DHT22;35724;49.324;-123.118;2023-03-23T19:59:15;26.50;32.30
12843;DHT22;35724;49.324;-123.118;2023-03-23T20:21:52;26.40;34.90
12843;DHT22;35724;49.324;-123.118;2023-03-23T20:32:27;26.60;35.60
12843;DHT22;35724;49.324;-123.118;2023-03-23T20:43:47;26.70;36.30
12843;DHT22;35724;49.324;-123.118;2023-03-23T20:54:09;26.70;35.10
12843;DHT22;35724;49.324;-123.118;2023-03-23T21:05:25;26.50;34.20
12843;DHT22;35724;49.324;-123.118;2023-03-23T21:15:40;26.00;34.70
12843;DHT22;35724;49.324;-123.118;2023-03-23T21:25:49;25.70;37.70
12843;DHT22;35724;49.324;-123.118;2023-03-23T22:10:42;26.00;36.50
12843;DHT22;35724;49.324;-123.118;2023-03-23T22:56:41;24.60;38.50
12843;DHT22;35724;49.324;-123.118;2023-03-23T23:41:52;24.40;40.20
